createdAt,value
2019-05-19T00:01:07.055Z,6.80
2019-05-19T00:03:40.449Z,6.10
2019-05-19T00:06:13.919Z,6.07
2019-05-19T00:08:47.291Z,5.90
2019-05-19T00:11:20.706Z,6.20
2019-05-19T00:13:54.098Z,5.37
2019-05-19T00:16:27.519Z,6.30
2019-05-19T00:19:00.910Z,6.60
2019-05-19T00:21:34.320Z,6.73
2019-05-19T00:24:07.781Z,5.97
2019-05-19T00:26:41.190Z,6.17
2019-05-19T00:29:14.597Z,6.50
2019-05-19T00:31:48.021Z,6.77
2019-05-19T00:34:21.467Z,7.07
2019-05-19T00:36:54.865Z,6.90
2019-05-19T00:39:28.261Z,7.60
2019-05-19T00:42:01.657Z,8.30
2019-05-19T00:44:35.071Z,7.50
2019-05-19T00:47:08.569Z,8.40
2019-05-19T00:49:41.989Z,9.20
2019-05-19T00:52:15.552Z,8.97
2019-05-19T00:54:49.227Z,10.33
2019-05-19T00:57:24.187Z,8.57
2019-05-19T00:59:59.182Z,8.87
2019-05-19T01:02:32.596Z,9.70
2019-05-19T01:05:07.344Z,10.17
2019-05-19T01:07:40.850Z,9.23
2019-05-19T01:10:14.577Z,9.47
2019-05-19T01:12:47.995Z,8.90
2019-05-19T01:15:21.585Z,9.73
2019-05-19T01:17:55.012Z,9.83
2019-05-19T01:20:28.483Z,10.60
2019-05-19T01:23:02.647Z,11.23
2019-05-19T01:25:36.195Z,11.03
2019-05-19T01:28:09.612Z,9.80
2019-05-19T01:30:43.019Z,11.10
2019-05-19T01:33:17.493Z,10.97
2019-05-19T01:35:50.912Z,9.90
2019-05-19T01:38:24.310Z,10.00
2019-05-19T01:40:57.710Z,9.67
2019-05-19T01:43:31.149Z,10.83
2019-05-19T01:46:04.782Z,9.80
2019-05-19T01:48:38.368Z,10.47
2019-05-19T01:51:11.756Z,11.13
2019-05-19T01:53:45.188Z,11.00
2019-05-19T01:56:18.583Z,11.10
2019-05-19T01:58:52.025Z,11.87
2019-05-19T02:01:25.430Z,11.83
2019-05-19T02:03:58.852Z,11.33
2019-05-19T02:06:32.249Z,11.13
2019-05-19T02:09:07.119Z,10.87
2019-05-19T02:11:40.551Z,10.97
2019-05-19T02:14:14.054Z,11.10
2019-05-19T02:16:47.447Z,13.03
2019-05-19T02:19:20.935Z,14.17
2019-05-19T02:21:55.951Z,15.00
2019-05-19T02:24:29.418Z,16.20
2019-05-19T02:27:02.833Z,14.97
2019-05-19T02:29:36.242Z,15.10
2019-05-19T02:32:09.650Z,14.77
2019-05-19T02:34:43.061Z,15.17
2019-05-19T02:37:17.261Z,15.83
2019-05-19T02:39:50.765Z,14.67
2019-05-19T02:42:27.354Z,17.37
2019-05-19T02:45:03.527Z,15.13
2019-05-19T02:47:38.579Z,16.33
2019-05-19T02:50:12.836Z,15.13
2019-05-19T02:52:49.272Z,15.80
2019-05-19T02:55:23.355Z,15.10
2019-05-19T02:57:57.675Z,14.80
2019-05-19T03:00:39.811Z,14.60
2019-05-19T03:03:13.244Z,14.83
2019-05-19T03:05:46.677Z,15.77
2019-05-19T03:08:20.121Z,15.20
2019-05-19T03:10:53.547Z,14.93
2019-05-19T03:13:26.945Z,13.03
2019-05-19T03:16:00.375Z,12.50
2019-05-19T03:18:33.813Z,11.60
2019-05-19T03:21:11.035Z,12.63
2019-05-19T03:23:42.477Z,11.63
2019-05-19T03:26:15.869Z,9.50
2019-05-19T03:28:49.284Z,8.83
2019-05-19T03:31:24.362Z,9.37
2019-05-19T03:33:58.523Z,9.73
2019-05-19T03:36:31.956Z,9.83
2019-05-19T03:39:07.108Z,9.23
2019-05-19T03:41:40.851Z,10.10
2019-05-19T03:44:14.239Z,9.60
2019-05-19T03:46:47.657Z,10.83
2019-05-19T03:49:21.069Z,10.27
2019-05-19T03:51:54.513Z,11.70
2019-05-19T03:54:27.938Z,11.47
2019-05-19T03:57:01.357Z,11.57
2019-05-19T03:59:34.759Z,11.43
2019-05-19T04:02:08.184Z,12.10
2019-05-19T04:04:41.579Z,13.13
2019-05-19T04:07:15.011Z,11.03
2019-05-19T04:09:48.672Z,12.90
2019-05-19T04:12:22.096Z,13.63
2019-05-19T04:14:55.500Z,12.40
2019-05-19T04:17:28.918Z,13.77
2019-05-19T04:20:02.435Z,12.33
2019-05-19T04:22:35.862Z,11.50
2019-05-19T04:25:09.273Z,12.00
2019-05-19T04:27:42.728Z,13.63
2019-05-19T04:30:16.922Z,13.07
2019-05-19T04:32:50.320Z,12.17
2019-05-19T04:35:23.757Z,12.50
2019-05-19T04:37:57.307Z,10.73
2019-05-19T04:40:30.741Z,11.83
2019-05-19T04:43:04.473Z,13.00
2019-05-19T04:45:37.892Z,11.40
2019-05-19T04:48:11.303Z,11.03
2019-05-19T04:50:44.698Z,11.60
2019-05-19T04:53:18.132Z,11.47
2019-05-19T04:55:51.592Z,12.23
2019-05-19T04:58:24.971Z,13.03
2019-05-19T05:00:58.399Z,12.63
2019-05-19T05:03:31.802Z,13.77
2019-05-19T05:06:05.240Z,13.57
2019-05-19T05:08:38.647Z,13.37
2019-05-19T05:11:12.085Z,13.37
2019-05-19T05:13:45.486Z,13.63
2019-05-19T05:16:18.905Z,13.53
2019-05-19T05:18:52.389Z,14.13
2019-05-19T05:21:25.828Z,14.00
2019-05-19T05:23:59.233Z,14.00
2019-05-19T05:26:32.702Z,14.43
2019-05-19T05:29:06.119Z,16.53
2019-05-19T05:31:39.544Z,17.00
2019-05-19T05:34:12.957Z,21.43
2019-05-19T05:36:46.450Z,22.00
2019-05-19T05:39:19.868Z,22.10
2019-05-19T05:41:53.286Z,25.13
2019-05-19T05:44:26.691Z,25.17
2019-05-19T05:47:00.137Z,22.40
2019-05-19T05:49:33.558Z,24.17
2019-05-19T05:52:07.012Z,22.20
2019-05-19T05:54:40.396Z,21.83
2019-05-19T05:57:13.825Z,20.03
2019-05-19T05:59:47.202Z,18.80
2019-05-19T06:02:20.636Z,19.37
2019-05-19T06:04:54.035Z,18.73
2019-05-19T06:07:27.468Z,19.17
2019-05-19T06:10:00.934Z,19.77
2019-05-19T06:12:34.361Z,18.70
2019-05-19T06:15:07.917Z,20.73
2019-05-19T06:17:41.354Z,19.87
2019-05-19T06:20:15.493Z,18.60
2019-05-19T06:22:56.524Z,20.67
2019-05-19T06:25:24.161Z,19.97
2019-05-19T06:27:57.627Z,19.47
2019-05-19T06:30:31.039Z,20.57
2019-05-19T06:33:04.728Z,21.37
2019-05-19T06:35:38.109Z,21.42
2019-05-19T06:38:11.558Z,21.20
2019-05-19T06:40:44.965Z,20.17
2019-05-19T06:43:18.402Z,21.57
2019-05-19T06:45:51.818Z,20.83
2019-05-19T06:48:25.596Z,20.10
2019-05-19T06:50:59.008Z,19.90
2019-05-19T06:53:32.426Z,20.20
2019-05-19T06:56:05.824Z,20.23
2019-05-19T06:58:39.259Z,19.43
2019-05-19T07:01:12.656Z,19.73
2019-05-19T07:03:46.162Z,19.83
2019-05-19T07:06:19.570Z,20.60
2019-05-19T07:08:53.002Z,21.07
2019-05-19T07:11:26.489Z,20.20
2019-05-19T07:14:02.873Z,19.83
2019-05-19T07:16:35.050Z,19.77
2019-05-19T07:19:08.473Z,20.60
2019-05-19T07:21:41.894Z,19.13
2019-05-19T07:24:15.332Z,19.03
2019-05-19T07:26:48.737Z,17.73
2019-05-19T07:29:22.152Z,18.00
2019-05-19T07:31:57.977Z,18.57
2019-05-19T07:34:30.741Z,18.13
2019-05-19T07:37:04.234Z,17.23
2019-05-19T07:39:37.638Z,16.50
2019-05-19T07:42:11.056Z,16.57
2019-05-19T07:44:45.369Z,16.63
2019-05-19T07:47:18.854Z,16.43
2019-05-19T07:49:53.062Z,15.43
2019-05-19T07:52:26.482Z,15.43
2019-05-19T07:54:59.922Z,15.33
2019-05-19T07:57:33.333Z,15.97
2019-05-19T08:00:08.779Z,13.93
2019-05-19T08:02:42.304Z,13.93
2019-05-19T08:05:15.920Z,14.77
2019-05-19T08:07:49.352Z,13.00
2019-05-19T08:10:22.763Z,12.33
2019-05-19T08:12:56.191Z,13.70
2019-05-19T08:15:29.616Z,12.77
2019-05-19T08:18:03.100Z,11.60
2019-05-19T08:20:36.510Z,10.40
2019-05-19T08:23:10.816Z,10.10
2019-05-19T08:25:44.266Z,10.87
2019-05-19T08:28:17.702Z,9.50
2019-05-19T08:30:51.138Z,8.53
2019-05-19T08:33:24.589Z,8.03
2019-05-19T08:35:58.020Z,7.10
2019-05-19T08:38:31.532Z,8.03
2019-05-19T08:41:05.068Z,8.67
2019-05-19T08:43:38.442Z,7.60
2019-05-19T08:46:11.923Z,9.00
2019-05-19T08:48:45.417Z,9.13
2019-05-19T08:51:18.844Z,8.93
2019-05-19T08:53:52.220Z,9.43
2019-05-19T08:56:25.660Z,10.30
2019-05-19T08:58:59.091Z,10.93
2019-05-19T09:01:32.538Z,10.60
2019-05-19T09:04:06.023Z,11.40
2019-05-19T09:06:39.486Z,11.33
2019-05-19T09:09:13.039Z,10.93
2019-05-19T09:11:48.000Z,11.07
2019-05-19T09:14:21.559Z,10.47
2019-05-19T09:16:54.956Z,10.70
2019-05-19T09:19:28.387Z,10.03
2019-05-19T09:22:01.791Z,9.73
2019-05-19T09:24:37.241Z,9.50
2019-05-19T09:27:10.360Z,8.93
2019-05-19T09:29:43.763Z,8.47
2019-05-19T09:32:17.273Z,8.83
2019-05-19T09:34:50.666Z,8.53
2019-05-19T09:37:24.078Z,8.57
2019-05-19T09:39:57.507Z,9.10
2019-05-19T09:42:30.946Z,8.30
2019-05-19T09:45:09.180Z,7.73
2019-05-19T09:47:43.453Z,7.30
2019-05-19T09:50:17.200Z,7.97
2019-05-19T09:52:50.601Z,6.53
2019-05-19T09:55:23.999Z,7.07
2019-05-19T09:57:57.491Z,6.57
2019-05-19T10:00:31.320Z,6.63
2019-05-19T10:03:04.863Z,5.70
2019-05-19T10:05:38.412Z,5.50
2019-05-19T10:08:13.562Z,5.77
2019-05-19T10:11:05.184Z,6.20
2019-05-19T10:13:38.608Z,6.57
2019-05-19T10:16:12.027Z,7.27
2019-05-19T10:18:45.745Z,7.80
2019-05-19T10:21:19.188Z,8.33
2019-05-19T10:23:52.593Z,7.63
2019-05-19T10:26:25.989Z,7.10
2019-05-19T10:28:59.424Z,7.20
2019-05-19T10:31:32.891Z,6.47
2019-05-19T10:34:06.315Z,7.27
2019-05-19T10:36:39.759Z,6.73
2019-05-19T10:39:13.179Z,7.00
2019-05-19T10:41:46.581Z,6.90
2019-05-19T10:44:20.076Z,6.43
2019-05-19T10:46:53.598Z,6.93
2019-05-19T10:49:27.053Z,6.80
2019-05-19T10:52:00.472Z,6.33
2019-05-19T10:54:33.869Z,7.40
2019-05-19T10:57:07.286Z,7.43
2019-05-19T10:59:40.751Z,6.80
2019-05-19T11:02:14.161Z,6.70
2019-05-19T11:04:47.588Z,4.97
2019-05-19T11:07:21.017Z,5.90
2019-05-19T11:09:54.415Z,6.30
2019-05-19T11:12:27.910Z,5.80
2019-05-19T11:15:01.319Z,5.73
2019-05-19T11:17:34.821Z,5.90
2019-05-19T11:20:08.294Z,5.40
2019-05-19T11:22:41.702Z,5.50
2019-05-19T11:25:15.358Z,5.00
2019-05-19T11:27:48.796Z,4.90
2019-05-19T11:30:22.225Z,5.10
2019-05-19T11:32:55.637Z,4.70
2019-05-19T11:35:30.080Z,4.70
2019-05-19T11:38:03.522Z,4.30
2019-05-19T11:40:36.915Z,3.90
2019-05-19T11:43:10.314Z,3.67
2019-05-19T11:45:43.705Z,4.40
2019-05-19T11:48:17.180Z,4.30
2019-05-19T11:50:50.577Z,4.33
2019-05-19T11:53:24.033Z,4.30
2019-05-19T11:56:06.322Z,4.17
2019-05-19T11:58:32.674Z,4.13
2019-05-19T12:01:06.138Z,4.23
2019-05-19T12:03:39.580Z,4.53
2019-05-19T12:06:12.979Z,4.13
2019-05-19T12:08:46.414Z,4.17
2019-05-19T12:11:19.815Z,4.17
2019-05-19T12:13:53.220Z,4.60
2019-05-19T12:16:26.615Z,4.37
2019-05-19T12:19:00.067Z,4.33
2019-05-19T12:21:33.445Z,4.20
2019-05-19T12:24:06.860Z,4.40
2019-05-19T12:26:40.266Z,3.93
2019-05-19T12:29:13.661Z,4.20
2019-05-19T12:31:47.083Z,4.50
2019-05-19T12:34:20.510Z,3.83
2019-05-19T12:36:53.914Z,4.20
2019-05-19T12:39:27.382Z,3.77
2019-05-19T12:42:00.793Z,3.93
2019-05-19T12:44:34.219Z,3.50
2019-05-19T12:47:07.686Z,3.30
2019-05-19T12:49:41.107Z,3.77
2019-05-19T12:52:14.518Z,3.47
2019-05-19T12:54:47.949Z,3.60
2019-05-19T12:57:21.522Z,3.07
2019-05-19T12:59:55.232Z,3.40
2019-05-19T13:02:28.625Z,3.70
2019-05-19T13:05:05.434Z,3.27
2019-05-19T13:07:37.155Z,2.90
2019-05-19T13:10:11.114Z,3.40
2019-05-19T13:12:44.505Z,3.23
2019-05-19T13:15:18.059Z,2.87
2019-05-19T13:17:51.937Z,3.40
2019-05-19T13:20:25.420Z,2.97
2019-05-19T13:22:58.873Z,3.53
2019-05-19T13:25:32.278Z,3.03
2019-05-19T13:28:05.674Z,2.90
2019-05-19T13:30:39.101Z,3.23
2019-05-19T13:33:12.493Z,2.90
2019-05-19T13:35:45.898Z,2.60
2019-05-19T13:38:19.285Z,2.83
2019-05-19T13:40:52.717Z,2.90
2019-05-19T13:43:27.270Z,2.90
2019-05-19T13:46:01.282Z,2.93
2019-05-19T13:48:34.674Z,2.90
2019-05-19T13:51:08.970Z,2.87
2019-05-19T13:53:42.369Z,2.53
2019-05-19T13:56:15.788Z,2.60
2019-05-19T13:58:49.183Z,3.07
2019-05-19T14:01:28.695Z,2.30
2019-05-19T14:03:57.732Z,2.90
2019-05-19T14:06:31.174Z,2.93
2019-05-19T14:09:06.202Z,3.00
2019-05-19T14:11:39.707Z,2.83
2019-05-19T14:14:13.132Z,2.70
2019-05-19T14:16:46.535Z,2.50
2019-05-19T14:19:19.939Z,2.83
2019-05-19T14:21:53.372Z,2.77
2019-05-19T14:24:26.793Z,2.80
2019-05-19T14:27:00.273Z,2.33
2019-05-19T14:29:33.737Z,2.70
2019-05-19T14:32:07.163Z,2.50
2019-05-19T14:34:40.613Z,2.80
2019-05-19T14:37:14.030Z,3.00
2019-05-19T14:39:47.450Z,2.67
2019-05-19T14:42:38.740Z,2.60
2019-05-19T14:45:12.753Z,2.80
2019-05-19T14:47:46.185Z,2.80
2019-05-19T14:50:19.842Z,2.50
2019-05-19T14:52:53.255Z,2.60
2019-05-19T14:55:26.652Z,2.33
2019-05-19T14:58:00.146Z,2.47
2019-05-19T15:00:33.559Z,2.80
2019-05-19T15:03:07.007Z,2.63
2019-05-19T15:05:40.429Z,2.47
2019-05-19T15:08:13.870Z,2.80
2019-05-19T15:10:47.353Z,2.80
2019-05-19T15:13:20.795Z,2.37
2019-05-19T15:15:57.823Z,2.50
2019-05-19T15:18:29.378Z,2.97
2019-05-19T15:21:02.849Z,2.60
2019-05-19T15:23:36.255Z,2.23
2019-05-19T15:26:09.766Z,2.50
2019-05-19T15:28:43.198Z,2.70
2019-05-19T15:31:16.625Z,2.40
2019-05-19T15:33:50.037Z,2.50
2019-05-19T15:36:23.464Z,2.53
2019-05-19T15:38:56.856Z,2.30
2019-05-19T15:41:30.313Z,2.40
2019-05-19T15:44:03.870Z,2.20
2019-05-19T15:46:37.298Z,1.97
2019-05-19T15:49:10.740Z,2.02
2019-05-19T15:51:59.384Z,2.45
2019-05-19T15:54:19.333Z,1.70
2019-05-19T15:56:52.925Z,2.10
2019-05-19T15:59:26.352Z,2.30
2019-05-19T16:01:59.755Z,2.25
2019-05-19T16:04:33.258Z,2.67
2019-05-19T16:07:06.690Z,2.33
2019-05-19T16:09:40.124Z,2.60
2019-05-19T16:12:13.530Z,2.45
2019-05-19T16:14:46.937Z,2.30
2019-05-19T16:17:20.392Z,2.35
2019-05-19T16:19:53.824Z,2.05
2019-05-19T16:22:27.311Z,2.30
2019-05-19T16:25:00.719Z,2.12
2019-05-19T16:27:34.176Z,2.40
2019-05-19T16:30:08.825Z,2.12
2019-05-19T16:32:42.303Z,2.22
2019-05-19T16:35:15.855Z,2.30
2019-05-19T16:37:49.310Z,1.90
2019-05-19T16:40:22.774Z,2.10
2019-05-19T16:42:56.193Z,2.37
2019-05-19T16:45:29.581Z,2.05
2019-05-19T16:48:03.047Z,2.30
2019-05-19T16:50:36.397Z,2.12
2019-05-19T16:53:09.855Z,2.02
2019-05-19T16:55:43.236Z,1.90
2019-05-19T16:58:21.254Z,2.12
2019-05-19T17:00:51.839Z,2.10
2019-05-19T17:03:25.294Z,2.08
2019-05-19T17:05:58.702Z,2.15
2019-05-19T17:08:32.349Z,2.10
2019-05-19T17:11:17.647Z,1.90
2019-05-19T17:13:40.908Z,2.00
2019-05-19T17:16:14.303Z,2.00
2019-05-19T17:18:47.771Z,2.00
2019-05-19T17:21:21.227Z,2.00
2019-05-19T17:23:54.867Z,2.30
2019-05-19T17:26:28.311Z,2.15
2019-05-19T17:29:01.700Z,2.05
2019-05-19T17:31:35.104Z,2.30
2019-05-19T17:34:08.583Z,2.37
2019-05-19T17:36:41.953Z,2.27
2019-05-19T17:39:15.422Z,2.20
2019-05-19T17:41:48.794Z,2.47
2019-05-19T17:44:22.229Z,2.67
2019-05-19T17:46:55.615Z,2.20
2019-05-19T17:49:29.073Z,2.50
2019-05-19T17:52:02.609Z,2.73
2019-05-19T17:54:36.086Z,2.90
2019-05-19T17:57:09.761Z,2.13
2019-05-19T17:59:46.347Z,3.03
2019-05-19T18:02:19.759Z,2.83
2019-05-19T18:04:53.375Z,2.70
2019-05-19T18:07:26.765Z,2.60
2019-05-19T18:10:00.197Z,2.80
2019-05-19T18:12:34.493Z,3.00
2019-05-19T18:15:09.123Z,3.33
2019-05-19T18:17:42.526Z,3.10
2019-05-19T18:20:23.826Z,3.17
2019-05-19T18:22:51.257Z,2.87
2019-05-19T18:25:24.700Z,3.03
2019-05-19T18:27:58.093Z,2.40
2019-05-19T18:30:31.638Z,2.80
2019-05-19T18:33:05.039Z,2.73
2019-05-19T18:35:38.454Z,3.20
2019-05-19T18:38:11.842Z,3.10
2019-05-19T18:40:45.268Z,2.80
2019-05-19T18:43:18.743Z,3.37
2019-05-19T18:45:52.182Z,3.80
2019-05-19T18:48:25.687Z,3.60
2019-05-19T18:50:59.098Z,3.30
2019-05-19T18:53:32.551Z,3.60
2019-05-19T18:56:05.950Z,3.67
2019-05-19T18:58:39.371Z,3.30
2019-05-19T19:01:12.843Z,3.47
2019-05-19T19:03:46.315Z,3.53
2019-05-19T19:06:19.752Z,3.20
2019-05-19T19:08:53.157Z,4.10
2019-05-19T19:11:26.581Z,3.10
2019-05-19T19:13:59.988Z,3.43
2019-05-19T19:16:33.429Z,3.60
2019-05-19T19:19:06.837Z,3.90
2019-05-19T19:21:40.275Z,3.77
2019-05-19T19:24:13.679Z,3.70
2019-05-19T19:26:47.112Z,3.50
2019-05-19T19:29:20.575Z,3.93
2019-05-19T19:31:53.950Z,4.10
2019-05-19T19:34:27.354Z,3.93
2019-05-19T19:37:00.804Z,3.87
2019-05-19T19:39:34.234Z,3.70
2019-05-19T19:42:07.705Z,3.73
2019-05-19T19:44:41.194Z,3.83
2019-05-19T19:47:14.911Z,4.10
2019-05-19T19:49:48.295Z,3.87
2019-05-19T19:52:21.735Z,3.53
2019-05-19T19:54:55.206Z,3.73
2019-05-19T19:57:28.712Z,3.67
2019-05-19T20:00:02.204Z,3.67
2019-05-19T20:02:35.694Z,3.70
2019-05-19T20:05:09.227Z,3.87
2019-05-19T20:07:42.692Z,3.53
2019-05-19T20:10:16.134Z,3.47
2019-05-19T20:12:49.535Z,3.93
2019-05-19T20:15:24.548Z,3.90
2019-05-19T20:17:58.139Z,4.10
2019-05-19T20:20:31.570Z,3.67
2019-05-19T20:23:05.040Z,3.97
2019-05-19T20:25:38.524Z,3.83
2019-05-19T20:28:11.951Z,4.30
2019-05-19T20:30:45.536Z,3.97
2019-05-19T20:33:18.946Z,4.07
2019-05-19T20:35:52.439Z,4.10
2019-05-19T20:38:25.849Z,3.90
2019-05-19T20:40:59.243Z,3.67
2019-05-19T20:43:32.684Z,4.10
2019-05-19T20:46:06.114Z,3.83
2019-05-19T20:48:39.494Z,4.00
2019-05-19T20:51:12.921Z,3.40
2019-05-19T20:53:46.349Z,3.80
2019-05-19T20:56:19.773Z,4.00
2019-05-19T20:58:53.209Z,4.00
2019-05-19T21:01:26.682Z,4.00
2019-05-19T21:04:00.070Z,4.20
2019-05-19T21:06:34.233Z,4.47
2019-05-19T21:09:07.735Z,4.37
2019-05-19T21:11:41.179Z,4.20
2019-05-19T21:14:14.613Z,4.60
2019-05-19T21:16:48.071Z,5.23
2019-05-19T21:19:21.481Z,4.57
2019-05-19T21:21:54.889Z,4.63
2019-05-19T21:24:28.300Z,4.53
2019-05-19T21:27:01.728Z,5.03
2019-05-19T21:29:35.112Z,5.00
2019-05-19T21:32:08.539Z,5.07
2019-05-19T21:34:41.932Z,4.47
2019-05-19T21:37:15.347Z,5.77
2019-05-19T21:39:48.748Z,5.23
2019-05-19T21:42:22.172Z,5.37
2019-05-19T21:44:55.549Z,5.27
2019-05-19T21:47:28.966Z,4.93
2019-05-19T21:50:02.669Z,5.30
2019-05-19T21:52:36.061Z,5.00
2019-05-19T21:55:09.541Z,4.77
2019-05-19T21:57:42.983Z,4.97
2019-05-19T22:00:17.744Z,5.17
2019-05-19T22:02:51.168Z,5.73
2019-05-19T22:05:24.578Z,4.43
2019-05-19T22:08:05.593Z,5.10
2019-05-19T22:10:39.082Z,4.37
2019-05-19T22:13:12.522Z,5.47
2019-05-19T22:15:45.937Z,5.03
2019-05-19T22:18:19.341Z,5.33
2019-05-19T22:20:53.356Z,5.83
2019-05-19T22:23:26.747Z,5.60
2019-05-19T22:26:00.152Z,5.63
2019-05-19T22:28:33.613Z,5.67
2019-05-19T22:31:07.034Z,5.37
2019-05-19T22:33:40.455Z,5.57
2019-05-19T22:36:13.842Z,5.50
2019-05-19T22:38:47.269Z,5.43
2019-05-19T22:41:20.657Z,5.30
2019-05-19T22:43:54.070Z,6.10
2019-05-19T22:46:27.463Z,5.60
2019-05-19T22:49:00.866Z,5.87
2019-05-19T22:51:34.272Z,5.70
2019-05-19T22:54:07.691Z,5.67
2019-05-19T22:56:41.085Z,5.80
2019-05-19T22:59:19.729Z,5.80
2019-05-19T23:01:52.132Z,5.93
2019-05-19T23:04:24.787Z,5.93
2019-05-19T23:06:58.196Z,5.70
2019-05-19T23:09:31.620Z,6.50
2019-05-19T23:12:05.150Z,6.17
2019-05-19T23:14:38.529Z,6.13
2019-05-19T23:17:11.906Z,6.10
2019-05-19T23:19:45.314Z,6.33
2019-05-19T23:22:18.710Z,6.63
2019-05-19T23:24:52.187Z,6.13
2019-05-19T23:27:25.824Z,6.37
2019-05-19T23:29:59.245Z,6.33
2019-05-19T23:32:33.536Z,6.47
2019-05-19T23:35:07.896Z,6.67
2019-05-19T23:37:41.295Z,6.57
2019-05-19T23:40:14.943Z,5.93
2019-05-19T23:42:48.699Z,6.67
2019-05-19T23:45:22.117Z,6.73
2019-05-19T23:47:55.531Z,7.57
2019-05-19T23:50:28.944Z,7.77
2019-05-19T23:53:02.342Z,7.07
2019-05-19T23:55:35.755Z,7.90
2019-05-19T23:58:09.263Z,8.10
